Time;durP1;ratioP1;P1;durP2;ratioP2;P2;SDS_P1;SDS_P2;PMS_P1;PMS_P2;Temp;Humidity;BMP_temperature;BMP_pressure;BME280_temperature;BME280_humidity;BME280_pressure;Samples;Min_cycle;Max_cycle;Signal;HPM_P1;HPM_P2
2022/12/31 00:01:27;;;;;;;;;0.00;0.00;;;;;15.77;100.00;100600.81;5076039;27;45299;-78
2022/12/31 00:03:54;;;;;;;;;0.67;0.33;;;;;15.69;100.00;100603.59;5065500;27;45239;-78
2022/12/31 00:06:21;;;;;;;;;2.00;0.00;;;;;15.78;100.00;100614.28;5064612;28;46522;-78
2022/12/31 00:08:46;;;;;;;;;0.00;0.00;;;;;15.81;100.00;100624.03;5062734;28;45246;-77
2022/12/31 00:11:13;;;;;;;;;1.00;1.00;;;;;15.76;100.00;100608.16;5064912;28;45254;-77
2022/12/31 00:13:39;;;;;;;;;1.67;0.33;;;;;15.78;100.00;100614.28;5064220;28;45495;-78
2022/12/31 00:16:10;;;;;;;;;2.00;2.00;;;;;15.80;100.00;100617.69;5064051;28;46249;-78
2022/12/31 00:18:36;;;;;;;;;0.00;0.00;;;;;15.78;100.00;100611.53;5064831;28;45373;-78
2022/12/31 00:21:06;;;;;;;;;1.00;1.00;;;;;15.71;100.00;100604.25;5081424;27;45209;-79
2022/12/31 00:23:31;;;;;;;;;4.00;1.00;;;;;15.81;100.00;100613.06;5084997;27;45446;-80
2022/12/31 00:26:02;;;;;;;;;3.67;1.00;;;;;15.79;100.00;100612.41;5084230;27;45662;-79
2022/12/31 00:28:27;;;;;;;;;0.00;0.00;;;;;15.70;100.00;100624.50;5078740;28;45418;-79
2022/12/31 00:30:53;;;;;;;;;0.67;0.67;;;;;15.81;100.00;100651.44;5098465;27;45233;-80
2022/12/31 00:33:18;;;;;;;;;0.33;0.33;;;;;15.88;100.00;100641.44;5105231;27;45457;-79
2022/12/31 00:35:43;;;;;;;;;4.00;3.00;;;;;15.91;100.00;100646.56;5085841;27;47688;-81
2022/12/31 00:38:09;;;;;;;;;1.00;1.00;;;;;15.94;100.00;100643.44;5086555;27;45290;-80
2022/12/31 00:40:34;;;;;;;;;3.00;1.33;;;;;15.94;100.00;100635.22;5103931;27;45567;-80
2022/12/31 00:42:59;;;;;;;;;2.00;2.00;;;;;16.00;100.00;100645.41;5086410;27;45291;-79
2022/12/31 00:45:25;;;;;;;;;1.67;1.67;;;;;16.00;100.00;100644.59;5104339;27;45328;-79
2022/12/31 00:47:50;;;;;;;;;4.33;1.00;;;;;15.96;100.00;100642.22;5104573;27;45255;-77
2022/12/31 00:50:16;;;;;;;;;2.33;2.33;;;;;15.97;100.00;100670.47;5104210;27;45168;-79
2022/12/31 00:52:41;;;;;;;;;3.00;1.00;;;;;15.76;100.00;100648.41;5073272;27;45384;-80
2022/12/31 00:55:07;;;;;;;;;3.00;1.33;;;;;15.76;100.00;100653.88;5085735;27;46384;-77
2022/12/31 00:57:32;;;;;;;;;1.33;1.00;;;;;15.69;100.00;100652.91;5088054;27;45250;-79
2022/12/31 00:59:57;;;;;;;;;1.00;1.00;;;;;15.81;100.00;100674.19;5079435;27;45423;-79
2022/12/31 01:02:23;;;;;;;;;1.00;1.00;;;;;15.79;100.00;100657.09;5072176;27;45567;-78
2022/12/31 01:04:48;;;;;;;;;1.33;1.33;;;;;15.86;100.00;100652.56;5090911;27;46277;-81
2022/12/31 01:07:13;;;;;;;;;3.33;2.67;;;;;15.89;100.00;100659.56;5083960;28;45344;-80
2022/12/31 01:09:39;;;;;;;;;2.00;2.00;;;;;15.90;100.00;100666.75;5083942;28;45303;-80
2022/12/31 01:12:04;;;;;;;;;4.33;3.00;;;;;15.96;100.00;100669.63;5084198;28;45477;-79
2022/12/31 01:14:31;;;;;;;;;1.00;1.00;;;;;16.02;100.00;100678.13;5083708;28;45376;-79
2022/12/31 01:16:57;;;;;;;;;0.00;0.00;;;;;16.02;100.00;100676.22;5084570;27;45327;-80
2022/12/31 01:19:26;;;;;;;;;0.67;0.00;;;;;15.92;100.00;100670.19;5098490;27;45602;-81
2022/12/31 01:21:52;;;;;;;;;1.00;0.67;;;;;16.08;100.00;100670.00;5083870;28;45365;-81
2022/12/31 01:24:18;;;;;;;;;2.67;1.00;;;;;16.16;100.00;100666.34;5078553;27;46879;-81
2022/12/31 01:26:44;;;;;;;;;1.00;1.00;;;;;16.18;100.00;100667.00;5096903;27;45360;-81
2022/12/31 01:29:10;;;;;;;;;1.00;1.00;;;;;16.18;100.00;100678.81;5083666;28;45406;-81
2022/12/31 01:31:37;;;;;;;;;1.00;1.00;;;;;16.23;100.00;100689.22;5090854;27;45359;-82
2022/12/31 01:34:03;;;;;;;;;1.00;1.00;;;;;16.22;100.00;100688.38;5103983;27;45529;-82
2022/12/31 01:36:31;;;;;;;;;0.67;0.67;;;;;16.25;100.00;100689.91;5104047;27;45206;-82
2022/12/31 01:38:59;;;;;;;;;2.00;1.00;;;;;16.29;100.00;100707.69;5103918;27;45323;-81
2022/12/31 01:41:29;;;;;;;;;2.00;1.00;;;;;16.28;100.00;100698.63;5104253;27;45543;-83
2022/12/31 01:43:55;;;;;;;;;0.67;0.67;;;;;16.37;100.00;100710.31;5088162;27;46277;-83
2022/12/31 01:46:33;;;;;;;;;3.00;1.67;;;;;16.38;100.00;100690.09;5083692;28;45441;-81
2022/12/31 01:49:26;;;;;;;;;1.00;1.00;;;;;16.34;100.00;100699.75;5064515;28;45444;-80
2022/12/31 01:52:19;;;;;;;;;3.00;2.00;;;;;16.37;100.00;100702.09;5070349;27;45462;-80
2022/12/31 01:54:54;;;;;;;;;0.00;0.00;;;;;16.35;100.00;100698.72;5080812;27;45491;-80
2022/12/31 01:57:21;;;;;;;;;2.00;1.00;;;;;16.38;100.00;100705.69;5070326;28;45305;-81
2022/12/31 01:59:46;;;;;;;;;2.00;1.00;;;;;16.34;100.00;100725.28;5065139;28;45426;-82
2022/12/31 02:02:14;;;;;;;;;1.67;1.00;;;;;16.40;100.00;100714.59;5102677;27;45294;-81
2022/12/31 02:04:40;;;;;;;;;1.00;1.00;;;;;16.32;100.00;100701.81;5103445;27;45396;-81
2022/12/31 02:07:07;;;;;;;;;2.67;1.00;;;;;16.42;100.00;100707.03;5103377;27;45255;-82
2022/12/31 02:09:37;;;;;;;;;1.00;1.00;;;;;16.46;100.00;100724.81;5072913;28;45245;-82
2022/12/31 02:12:03;;;;;;;;;2.00;1.00;;;;;16.50;100.00;100715.19;5064920;28;45659;-81
2022/12/31 02:14:32;;;;;;;;;3.00;0.67;;;;;16.54;100.00;100724.72;5082893;28;46386;-82
2022/12/31 02:17:22;;;;;;;;;0.00;0.00;;;;;16.55;100.00;100709.97;5081218;28;45559;-82
2022/12/31 02:20:16;;;;;;;;;1.00;1.00;;;;;16.57;100.00;100713.41;5094130;27;45417;-81
2022/12/31 02:22:44;;;;;;;;;1.00;1.00;;;;;16.56;100.00;100717.19;5103964;27;45460;-81
2022/12/31 02:25:28;;;;;;;;;1.00;1.00;;;;;16.61;100.00;100714.75;5084599;27;46585;-82
2022/12/31 02:28:25;;;;;;;;;1.00;1.00;;;;;16.64;100.00;100715.22;5085859;27;45351;-81
2022/12/31 02:31:00;;;;;;;;;0.00;0.00;;;;;16.59;100.00;100706.66;5064814;27;45433;-81
2022/12/31 02:33:37;;;;;;;;;0.67;0.67;;;;;16.67;100.00;100698.38;5083204;27;45423;-81
2022/12/31 02:36:15;;;;;;;;;0.00;0.00;;;;;16.62;100.00;100710.97;5082988;27;46705;-81
2022/12/31 02:38:44;;;;;;;;;1.00;1.00;;;;;16.64;100.00;100711.63;5086112;28;45219;-80
2022/12/31 02:41:48;;;;;;;;;0.00;0.00;;;;;16.68;100.00;100713.81;5086017;27;45362;-80
2022/12/31 02:43:59;;;;;;;;;2.00;1.00;;;;;16.69;100.00;100734.72;5085956;27;45255;-80
2022/12/31 02:46:37;;;;;;;;;0.00;0.00;;;;;16.77;100.00;100722.78;5076472;27;46688;-80
2022/12/31 02:49:17;;;;;;;;;1.00;1.00;;;;;16.79;100.00;100725.34;5087880;27;45328;-81
2022/12/31 02:51:53;;;;;;;;;3.67;0.00;;;;;16.65;100.00;100718.81;5084409;28;45457;-80
2022/12/31 02:55:00;;;;;;;;;0.00;0.00;;;;;16.70;100.00;100719.09;5086512;28;45262;-80
2022/12/31 02:57:39;;;;;;;;;0.00;0.00;;;;;16.78;100.00;100738.22;5089477;27;45176;-80
2022/12/31 03:02:53;;;;;;;;;3.00;0.00;;;;;16.65;100.00;100729.81;5085790;27;45180;-80
2022/12/31 03:05:23;;;;;;;;;0.67;0.33;;;;;16.77;100.00;100735.66;5084931;27;45447;-81
2022/12/31 03:07:49;;;;;;;;;0.33;0.00;;;;;16.77;100.00;100725.53;5094970;27;45993;-80
2022/12/31 03:10:15;;;;;;;;;0.33;0.33;;;;;16.68;100.00;100733.00;5084560;27;45379;-80
2022/12/31 03:12:50;;;;;;;;;1.00;0.67;;;;;16.71;100.00;100740.00;5095165;27;45401;-80
2022/12/31 03:15:27;;;;;;;;;0.00;0.00;;;;;16.69;100.00;100739.34;5085686;27;45330;-80
2022/12/31 03:17:57;;;;;;;;;3.00;1.00;;;;;16.77;100.00;100754.88;5077889;27;48309;-81
2022/12/31 03:23:17;;;;;;;;;1.33;0.67;;;;;16.72;100.00;100725.25;5085218;27;45405;-81
2022/12/31 03:25:43;;;;;;;;;0.67;0.67;;;;;16.71;100.00;100751.00;5084281;28;45456;-80
2022/12/31 03:28:11;;;;;;;;;1.50;1.00;;;;;16.73;100.00;100757.97;5084914;28;46216;-80
2022/12/31 03:30:38;;;;;;;;;1.00;1.00;;;;;16.67;100.00;100741.41;5078916;27;45354;-80
2022/12/31 03:33:05;;;;;;;;;1.67;0.33;;;;;16.78;100.00;100762.91;5086545;27;45145;-81
2022/12/31 03:35:33;;;;;;;;;2.00;1.00;;;;;16.79;100.00;100755.53;5079946;27;45571;-81
2022/12/31 03:37:59;;;;;;;;;0.67;0.67;;;;;16.78;100.00;100762.91;5085594;27;45385;-81
2022/12/31 03:40:26;;;;;;;;;0.00;0.00;;;;;16.71;100.00;100764.72;5083698;28;45428;-81
2022/12/31 03:42:51;;;;;;;;;2.00;0.33;;;;;16.73;100.00;100779.06;5085167;27;45240;-81
2022/12/31 03:45:17;;;;;;;;;0.00;0.00;;;;;16.73;100.00;100779.06;5080328;27;45580;-81
2022/12/31 03:47:43;;;;;;;;;2.00;2.00;;;;;16.57;100.00;100768.25;5084808;27;45420;-81
2022/12/31 03:50:11;;;;;;;;;0.00;0.00;;;;;16.66;100.00;100789.94;5085123;28;45648;-81
2022/12/31 03:52:36;;;;;;;;;2.00;2.00;;;;;16.57;100.00;100773.75;5104887;27;45394;-81
2022/12/31 03:55:02;;;;;;;;;1.00;1.00;;;;;16.58;100.00;100772.69;5087429;27;45397;-81
2022/12/31 03:57:28;;;;;;;;;2.00;0.00;;;;;16.61;100.00;100783.31;5099288;27;46095;-81
2022/12/31 03:59:53;;;;;;;;;1.33;1.00;;;;;16.62;100.00;100765.81;5085000;28;45333;-81
2022/12/31 04:02:19;;;;;;;;;3.00;1.00;;;;;16.58;100.00;100768.03;5066314;28;45444;-81
2022/12/31 04:04:44;;;;;;;;;1.00;1.00;;;;;16.57;100.00;100779.22;5085088;27;45400;-81
2022/12/31 04:07:10;;;;;;;;;2.00;0.00;;;;;16.63;100.00;100779.34;5084584;27;46308;-81
2022/12/31 04:09:35;;;;;;;;;3.00;0.67;;;;;16.60;100.00;100787.94;5079222;27;45425;-81
2022/12/31 04:12:00;;;;;;;;;1.67;1.00;;;;;16.54;100.00;100774.09;5085346;27;45376;-80
2022/12/31 04:14:26;;;;;;;;;2.00;2.00;;;;;16.54;100.00;100765.88;5066782;28;45298;-81
2022/12/31 04:16:51;;;;;;;;;0.00;0.00;;;;;16.51;100.00;100774.50;5084195;28;45538;-82
2022/12/31 04:19:16;;;;;;;;;3.67;2.00;;;;;16.49;100.00;100773.81;5091484;27;45258;-81
2022/12/31 04:21:42;;;;;;;;;2.33;1.00;;;;;16.46;100.00;100758.56;5083181;28;45508;-81
2022/12/31 04:24:07;;;;;;;;;3.00;2.00;;;;;16.56;100.00;100761.06;5098825;27;45555;-82
2022/12/31 04:26:34;;;;;;;;;3.00;1.67;;;;;16.59;100.00;100777.13;5105360;27;45634;-81
2022/12/31 04:28:59;;;;;;;;;2.33;2.00;;;;;16.48;100.00;100758.41;5104768;27;45157;-81
2022/12/31 04:31:25;;;;;;;;;1.00;1.00;;;;;16.43;100.00;100753.47;5086291;27;45261;-80
2022/12/31 04:33:51;;;;;;;;;3.00;2.00;;;;;16.40;100.00;100762.06;5105566;27;45338;-81
2022/12/31 04:36:17;;;;;;;;;1.33;0.00;;;;;16.46;100.00;100782.41;5067627;28;47010;-81
2022/12/31 04:38:42;;;;;;;;;3.00;1.00;;;;;16.51;100.00;100774.50;5084549;28;45325;-81
2022/12/31 04:41:16;;;;;;;;;8.00;3.00;;;;;16.48;100.00;100781.19;5065979;28;45453;-81
2022/12/31 04:43:44;;;;;;;;;5.67;3.00;;;;;16.57;100.00;100788.31;5079584;27;45471;-81
2022/12/31 04:46:10;;;;;;;;;2.33;2.00;;;;;16.58;100.00;100781.75;5082776;28;46683;-81
2022/12/31 04:48:35;;;;;;;;;2.00;2.00;;;;;16.49;100.00;100774.66;5078869;27;45345;-81
2022/12/31 04:51:01;;;;;;;;;5.00;2.00;;;;;16.58;100.00;100767.22;5090383;27;45335;-80
2022/12/31 04:53:27;;;;;;;;;2.00;2.00;;;;;16.53;100.00;100769.66;5105150;27;45221;-80
2022/12/31 04:55:52;;;;;;;;;3.00;1.33;;;;;16.56;100.00;100764.66;5086011;27;46956;-80
2022/12/31 04:58:18;;;;;;;;;5.00;0.33;;;;;16.56;100.00;100761.91;5091259;27;45393;-81
2022/12/31 05:00:45;;;;;;;;;3.00;1.33;;;;;16.57;100.00;100790.19;5064509;28;45401;-81
2022/12/31 05:03:11;;;;;;;;;1.00;1.00;;;;;16.44;100.00;100757.06;5079281;27;45387;-78
2022/12/31 05:05:42;;;;;;;;;2.00;2.00;;;;;16.42;100.00;100773.72;5065589;28;47342;-79
2022/12/31 05:08:08;;;;;;;;;3.33;2.00;;;;;16.55;100.00;100784.03;5097843;27;45277;-80
2022/12/31 05:10:34;;;;;;;;;1.00;1.00;;;;;16.53;100.00;100773.25;5086087;27;45321;-79
2022/12/31 05:12:59;;;;;;;;;3.00;2.00;;;;;16.62;100.00;100793.25;5104678;27;45167;-80
2022/12/31 05:15:25;;;;;;;;;2.00;2.00;;;;;16.60;100.00;100787.06;5104564;27;45773;-80
2022/12/31 05:17:50;;;;;;;;;2.00;0.00;;;;;16.59;100.00;100802.66;5104172;27;45376;-80
2022/12/31 05:20:16;;;;;;;;;1.33;1.00;;;;;16.52;100.00;100798.09;5097290;27;45239;-79
2022/12/31 05:22:41;;;;;;;;;3.00;1.67;;;;;16.52;100.00;100795.38;5084421;27;45292;-80
2022/12/31 05:25:07;;;;;;;;;1.00;1.00;;;;;16.50;100.00;100794.72;5065506;28;47376;-79
2022/12/31 05:27:32;;;;;;;;;3.00;1.00;;;;;16.53;100.00;100800.66;5084161;28;45448;-79
2022/12/31 05:29:59;;;;;;;;;1.33;1.33;;;;;16.49;100.00;100795.75;5082496;28;45294;-79
2022/12/31 05:32:24;;;;;;;;;1.67;1.00;;;;;16.52;100.00;100798.97;5079013;27;45334;-79
2022/12/31 05:34:50;;;;;;;;;3.67;2.00;;;;;16.48;100.00;100794.91;5083896;27;46659;-79
2022/12/31 05:37:16;;;;;;;;;1.33;1.00;;;;;16.44;100.00;100809.19;5083520;28;45340;-79
2022/12/31 05:39:41;;;;;;;;;1.00;1.00;;;;;16.51;100.00;100818.38;5065112;28;45498;-79
2022/12/31 05:42:06;;;;;;;;;0.00;0.00;;;;;16.41;100.00;100823.25;5078406;27;45623;-80
2022/12/31 05:44:32;;;;;;;;;1.00;1.00;;;;;16.36;100.00;100808.19;5065664;28;48260;-79
2022/12/31 05:46:57;;;;;;;;;2.33;2.00;;;;;16.42;100.00;100803.03;5077258;27;45707;-79
2022/12/31 05:49:22;;;;;;;;;3.00;1.00;;;;;16.38;100.00;100818.13;5085406;27;45310;-79
2022/12/31 05:51:48;;;;;;;;;3.00;1.33;;;;;16.41;100.00;100818.63;5089642;27;45498;-79
2022/12/31 05:54:13;;;;;;;;;1.33;1.00;;;;;16.46;100.00;100820.78;5103138;27;45399;-79
2022/12/31 05:56:39;;;;;;;;;2.00;2.00;;;;;16.51;100.00;100824.69;5103627;27;45389;-79
2022/12/31 05:59:04;;;;;;;;;3.67;2.67;;;;;16.49;100.00;100820.44;5083552;27;45306;-80
2022/12/31 06:01:30;;;;;;;;;3.00;2.00;;;;;16.51;100.00;100837.56;5083526;27;45230;-81
2022/12/31 06:03:55;;;;;;;;;3.00;3.00;;;;;16.49;100.00;100835.00;5082843;28;46571;-79
2022/12/31 06:06:20;;;;;;;;;4.00;2.00;;;;;16.42;100.00;100827.69;5083099;28;45313;-80
2022/12/31 06:08:50;;;;;;;;;2.00;1.00;;;;;16.34;100.00;100823.13;5081584;28;45242;-80
2022/12/31 06:11:15;;;;;;;;;2.33;2.00;;;;;16.40;100.00;100838.00;5079337;27;45591;-80
2022/12/31 06:13:40;;;;;;;;;3.00;1.67;;;;;16.42;100.00;100846.91;5086733;27;45456;-80
2022/12/31 06:16:08;;;;;;;;;4.00;1.00;;;;;16.33;100.00;100838.72;5086654;27;45511;-80
2022/12/31 06:18:33;;;;;;;;;3.00;2.00;;;;;16.32;100.00;100839.75;5086846;27;45294;-80
2022/12/31 06:20:58;;;;;;;;;4.67;3.00;;;;;16.39;100.00;100841.75;5075727;27;45243;-80
2022/12/31 06:23:24;;;;;;;;;3.00;1.00;;;;;16.27;100.00;100828.50;5088063;27;46583;-79
2022/12/31 06:25:49;;;;;;;;;2.67;2.00;;;;;16.41;100.00;100851.53;5092672;27;45337;-80
2022/12/31 06:28:15;;;;;;;;;3.33;3.33;;;;;16.42;100.00;100852.38;5087694;27;45663;-80
2022/12/31 06:30:40;;;;;;;;;3.00;2.00;;;;;16.43;100.00;100871.41;5076245;27;45166;-80
2022/12/31 06:33:05;;;;;;;;;4.67;4.00;;;;;16.40;100.00;100866.28;5105268;27;45273;-80
2022/12/31 06:35:31;;;;;;;;;3.00;3.00;;;;;16.44;100.00;100859.38;5106880;27;45271;-81
2022/12/31 06:37:56;;;;;;;;;2.33;2.33;;;;;16.40;100.00;100869.00;5106957;27;45217;-79
2022/12/31 06:40:21;;;;;;;;;1.00;1.00;;;;;16.39;100.00;100863.69;5088906;27;45549;-79
2022/12/31 06:42:47;;;;;;;;;6.00;1.67;;;;;16.42;100.00;100857.88;5106217;27;46365;-80
2022/12/31 06:45:12;;;;;;;;;3.33;3.00;;;;;16.40;100.00;100860.78;5108147;27;45388;-79
2022/12/31 06:47:37;;;;;;;;;7.00;3.67;;;;;16.35;100.00;100866.81;5088674;27;45270;-79
2022/12/31 06:50:03;;;;;;;;;4.67;2.67;;;;;16.46;100.00;100875.63;5088613;27;45368;-80
2022/12/31 06:52:28;;;;;;;;;3.00;3.00;;;;;16.40;100.00;100873.63;5085942;27;48026;-80
2022/12/31 06:54:54;;;;;;;;;2.33;2.33;;;;;16.48;100.00;100879.06;5086337;28;45399;-79
2022/12/31 06:57:20;;;;;;;;;4.00;3.00;;;;;16.38;100.00;100884.78;5086249;27;46318;-80
2022/12/31 06:59:45;;;;;;;;;3.33;1.00;;;;;16.35;100.00;100891.50;5076717;27;45578;-79
2022/12/31 07:02:44;;;;;;;;;1.00;1.00;;;;;16.45;100.00;100893.97;5105176;27;45392;-80
2022/12/31 07:05:54;;;;;;;;;3.00;1.00;;;;;16.39;100.00;100880.16;5089025;27;46094;-80
2022/12/31 07:08:46;;;;;;;;;3.33;3.00;;;;;16.44;100.00;100894.19;5047647;28;45405;-80
2022/12/31 07:11:22;;;;;;;;;1.00;1.00;;;;;16.31;100.00;100884.66;5086301;28;45342;-80
2022/12/31 07:14:06;;;;;;;;;3.00;3.00;;;;;16.41;100.00;100884.44;5087518;27;47666;-79
2022/12/31 07:16:56;;;;;;;;;4.33;3.00;;;;;16.48;100.00;100898.25;5088838;27;45349;-80
2022/12/31 07:19:48;;;;;;;;;3.00;2.00;;;;;16.38;100.00;100884.78;5093046;27;45317;-80
2022/12/31 07:22:15;;;;;;;;;5.33;3.00;;;;;16.45;100.00;100902.22;5066802;28;45890;-80
2022/12/31 07:24:42;;;;;;;;;4.00;4.00;;;;;16.42;100.00;100882.53;5083402;27;48137;-80
2022/12/31 07:27:20;;;;;;;;;4.33;3.00;;;;;16.38;100.00;100882.03;5095239;27;45377;-81
2022/12/31 07:30:13;;;;;;;;;1.67;1.67;;;;;16.24;100.00;100902.88;5085517;27;45389;-80
2022/12/31 07:33:16;;;;;;;;;4.00;2.00;;;;;16.35;100.00;100902.47;5086343;27;45165;-80
2022/12/31 07:35:54;;;;;;;;;2.67;2.67;;;;;16.38;100.00;100908.59;5086724;27;46266;-79
2022/12/31 07:38:31;;;;;;;;;2.33;2.00;;;;;16.38;100.00;100912.19;5068145;28;45292;-80
2022/12/31 07:41:12;;;;;;;;;5.33;4.00;;;;;16.45;100.00;100923.28;5067113;28;45366;-79
2022/12/31 07:44:03;;;;;;;;;4.67;3.00;;;;;16.40;100.00;100912.03;5085813;27;45219;-79
2022/12/31 07:46:50;;;;;;;;;1.67;1.00;;;;;16.41;100.00;100902.78;5028930;28;46759;-80
2022/12/31 07:49:16;;;;;;;;;4.00;3.00;;;;;16.40;100.00;100921.13;5082928;28;45999;-80
2022/12/31 07:51:41;;;;;;;;;5.00;2.00;;;;;16.41;100.00;100927.44;5097424;27;45433;-80
2022/12/31 07:54:07;;;;;;;;;6.33;5.00;;;;;16.34;100.00;100928.19;5087525;27;45598;-80
2022/12/31 07:56:32;;;;;;;;;3.00;3.00;;;;;16.35;100.00;100943.59;5106060;27;45218;-79
2022/12/31 07:59:04;;;;;;;;;3.67;3.33;;;;;16.40;100.00;100950.41;5086319;27;45253;-80
2022/12/31 08:01:35;;;;;;;;;6.33;3.00;;;;;16.45;100.00;100953.47;5084970;28;45310;-80
2022/12/31 08:04:07;;;;;;;;;6.00;4.67;;;;;16.46;100.00;100946.94;5092558;27;45140;-79
2022/12/31 08:06:44;;;;;;;;;3.00;3.00;;;;;16.44;100.00;100943.56;5086623;27;48170;-80
2022/12/31 08:09:32;;;;;;;;;4.33;4.00;;;;;16.41;100.00;100977.66;5105437;27;45195;-79
2022/12/31 08:12:00;;;;;;;;;5.00;3.00;;;;;16.38;100.00;100947.84;5043895;28;45442;-80
2022/12/31 08:14:26;;;;;;;;;4.33;3.00;;;;;16.43;100.00;100936.34;5085275;28;45344;-80
2022/12/31 08:16:53;;;;;;;;;4.33;2.00;;;;;16.46;100.00;100958.78;5084553;27;45314;-80
2022/12/31 08:19:30;;;;;;;;;2.00;2.00;;;;;16.30;100.00;100950.66;5091482;27;45506;-79
2022/12/31 08:22:17;;;;;;;;;3.00;3.00;;;;;16.40;100.00;100964.13;5084545;28;45468;-79
2022/12/31 08:24:48;;;;;;;;;6.00;3.00;;;;;16.30;100.00;100954.25;5066431;28;45678;-79
2022/12/31 08:27:22;;;;;;;;;4.00;4.00;;;;;16.32;100.00;100968.63;5084444;28;45672;-80
2022/12/31 08:30:08;;;;;;;;;4.33;4.33;;;;;16.35;100.00;100972.91;5084472;27;45277;-80
2022/12/31 08:32:39;;;;;;;;;3.00;3.00;;;;;16.31;100.00;100975.16;5079687;27;45451;-79
2022/12/31 08:35:25;;;;;;;;;3.00;3.00;;;;;16.35;100.00;100981.13;5076643;27;45433;-76
2022/12/31 08:38:20;;;;;;;;;4.67;4.67;;;;;16.22;100.00;100975.38;5084717;27;46268;-78
2022/12/31 08:41:03;;;;;;;;;1.67;1.67;;;;;16.26;100.00;100979.47;5084173;27;45326;-77
2022/12/31 08:43:53;;;;;;;;;2.67;2.67;;;;;16.22;100.00;100978.97;5066110;28;45370;-78
2022/12/31 08:46:31;;;;;;;;;3.67;3.00;;;;;16.27;100.00;100990.25;5066159;28;45320;-78
2022/12/31 08:48:57;;;;;;;;;6.33;6.33;;;;;16.15;100.00;100988.94;5097942;27;46318;-78
2022/12/31 08:51:25;;;;;;;;;6.67;3.33;;;;;16.31;100.00;100997.09;5076178;27;45412;-79
2022/12/31 08:53:52;;;;;;;;;6.67;4.00;;;;;16.15;100.00;100988.94;5082961;27;45451;-78
2022/12/31 08:56:39;;;;;;;;;6.00;4.00;;;;;16.22;100.00;100998.16;5085629;27;45217;-78
2022/12/31 08:59:27;;;;;;;;;4.67;3.00;;;;;16.22;100.00;100994.56;5098446;27;45792;-78
2022/12/31 09:01:55;;;;;;;;;6.00;4.00;;;;;16.28;100.00;101002.09;5064900;28;45325;-78
2022/12/31 09:04:53;;;;;;;;;3.00;3.00;;;;;16.27;100.00;100993.00;5076182;27;45310;-78
2022/12/31 09:07:25;;;;;;;;;4.33;3.00;;;;;16.32;100.00;101009.75;5086924;27;45250;-78
2022/12/31 09:10:28;;;;;;;;;7.00;5.00;;;;;16.35;100.00;101006.69;5089565;27;45402;-77
2022/12/31 09:13:28;;;;;;;;;4.00;2.67;;;;;16.17;100.00;101019.78;5083803;28;45373;-77
2022/12/31 09:16:14;;;;;;;;;5.33;4.33;;;;;16.23;100.00;101012.72;5074378;28;45270;-76
2022/12/31 09:18:41;;;;;;;;;7.67;5.00;;;;;16.28;100.00;101015.78;5091680;27;45210;-78
2022/12/31 09:21:12;;;;;;;;;3.67;3.67;;;;;16.32;100.00;101006.16;5082201;28;47145;-78
2022/12/31 09:23:38;;;;;;;;;3.00;3.00;;;;;16.46;100.00;101008.13;5083135;28;45292;-77
2022/12/31 09:26:34;;;;;;;;;5.33;3.67;;;;;16.27;100.00;101012.19;5084496;27;45219;-76
2022/12/31 09:29:16;;;;;;;;;5.00;5.00;;;;;16.47;100.00;101011.75;5091986;27;45339;-77
2022/12/31 09:31:53;;;;;;;;;2.33;2.33;;;;;16.43;100.00;101014.00;5072145;27;47008;-77
2022/12/31 09:34:54;;;;;;;;;4.67;4.67;;;;;16.53;100.00;101013.75;5103853;27;45420;-77
2022/12/31 09:37:35;;;;;;;;;4.67;3.33;;;;;16.34;100.00;101004.97;5090867;27;45390;-78
2022/12/31 09:40:13;;;;;;;;;3.00;3.00;;;;;16.49;100.00;101002.31;5084103;28;45266;-78
2022/12/31 09:42:56;;;;;;;;;3.00;3.00;;;;;16.40;100.00;100991.56;5083046;28;46693;-79
2022/12/31 09:45:36;;;;;;;;;4.67;4.67;;;;;16.53;100.00;101008.28;5082931;28;45335;-77
2022/12/31 09:48:08;;;;;;;;;4.33;3.67;;;;;16.42;100.00;101023.25;5091463;27;45260;-78
2022/12/31 09:51:05;;;;;;;;;5.33;5.33;;;;;16.51;100.00;101002.13;5104010;27;45251;-77
2022/12/31 09:54:22;;;;;;;;;4.67;3.00;;;;;16.39;100.00;101006.28;5103733;27;46497;-78
2022/12/31 09:57:17;;;;;;;;;3.00;3.00;;;;;16.49;100.00;101012.41;5043046;28;45664;-79
2022/12/31 09:59:56;;;;;;;;;4.00;1.33;;;;;16.47;100.00;101009.84;5083531;27;45223;-79
2022/12/31 10:02:44;;;;;;;;;4.33;4.33;;;;;16.48;100.00;101002.47;5085099;27;45393;-79
2022/12/31 10:05:46;;;;;;;;;4.00;4.00;;;;;16.42;100.00;101005.94;5081534;28;46684;-78
2022/12/31 10:08:34;;;;;;;;;5.00;5.00;;;;;16.28;100.00;101005.69;5064663;28;45398;-78
2022/12/31 10:11:24;;;;;;;;;3.67;2.33;;;;;16.28;100.00;101016.66;5083636;28;45453;-78
2022/12/31 10:14:01;;;;;;;;;5.67;4.33;;;;;16.28;100.00;101021.28;5065292;28;45587;-78
2022/12/31 10:16:45;;;;;;;;;6.33;5.67;;;;;16.31;100.00;101023.66;5098681;27;46520;-79
2022/12/31 10:19:35;;;;;;;;;2.67;1.33;;;;;16.31;100.00;101015.41;5103567;27;45221;-80
2022/12/31 10:22:06;;;;;;;;;5.00;4.00;;;;;16.48;100.00;101016.19;5103570;27;45531;-78
2022/12/31 10:25:00;;;;;;;;;4.33;4.00;;;;;16.50;100.00;101012.25;5085411;27;45286;-78
2022/12/31 10:27:50;;;;;;;;;5.33;4.33;;;;;16.60;100.00;101022.97;5080636;27;48365;-78
2022/12/31 10:30:21;;;;;;;;;3.33;3.33;;;;;16.40;100.00;101011.59;5084687;27;45489;-78
2022/12/31 10:33:18;;;;;;;;;7.67;3.33;;;;;16.58;100.00;101008.59;5103450;27;45396;-78
2022/12/31 10:36:13;;;;;;;;;3.67;2.67;;;;;16.65;100.00;101023.34;5085215;27;45447;-78
2022/12/31 10:39:06;;;;;;;;;4.33;3.00;;;;;16.59;100.00;101008.41;5098917;27;45469;-78
2022/12/31 10:41:56;;;;;;;;;3.00;3.00;;;;;16.71;100.00;101006.13;5103197;27;45294;-78
2022/12/31 10:44:58;;;;;;;;;4.00;4.00;;;;;16.64;100.00;101016.13;5103305;27;45337;-79
2022/12/31 10:47:42;;;;;;;;;5.00;4.00;;;;;16.80;100.00;100999.56;5103128;27;45615;-78
2022/12/31 10:50:34;;;;;;;;;3.67;3.33;;;;;16.70;100.00;100985.22;5084546;27;45340;-78
2022/12/31 10:53:37;;;;;;;;;6.00;4.33;;;;;16.73;100.00;100987.59;5073646;27;45284;-78
2022/12/31 10:56:21;;;;;;;;;7.67;6.00;;;;;16.87;100.00;100984.06;5082741;28;45469;-78
2022/12/31 10:59:15;;;;;;;;;6.33;4.00;;;;;16.90;100.00;100982.84;5084530;27;45649;-78
2022/12/31 11:01:58;;;;;;;;;5.00;3.33;;;;;16.94;100.00;100975.97;5067073;28;48233;-78
2022/12/31 11:04:45;;;;;;;;;4.00;3.00;;;;;17.08;100.00;100970.50;5077426;27;45680;-78
2022/12/31 11:07:38;;;;;;;;;4.33;4.33;;;;;17.22;100.00;100962.50;5086525;27;45374;-78
2022/12/31 11:10:28;;;;;;;;;3.00;2.00;;;;;17.37;100.00;100966.97;5085835;28;45428;-77
2022/12/31 11:13:35;;;;;;;;;4.00;4.00;;;;;17.56;100.00;100961.97;5085822;28;46426;-78
2022/12/31 11:16:00;;;;;;;;;3.67;3.00;;;;;17.55;100.00;100963.00;5066979;28;45487;-77
2022/12/31 11:18:28;;;;;;;;;5.33;4.00;;;;;17.61;100.00;100964.97;5104831;27;45218;-77
2022/12/31 11:21:16;;;;;;;;;6.00;5.00;;;;;17.57;100.00;100969.16;5089162;27;45339;-78
2022/12/31 11:24:06;;;;;;;;;4.67;3.33;;;;;17.46;100.00;100967.72;5085618;27;45649;-77
2022/12/31 11:26:55;;;;;;;;;3.67;3.67;;;;;17.66;100.00;100957.94;5085158;28;45321;-78
2022/12/31 11:29:41;;;;;;;;;4.00;4.00;;;;;17.68;100.00;100944.84;5056413;28;45335;-78
2022/12/31 11:32:17;;;;;;;;;6.67;4.00;;;;;17.57;100.00;100956.28;5078110;27;45285;-78
2022/12/31 11:34:50;;;;;;;;;4.00;4.00;;;;;17.63;100.00;100954.69;5086432;27;46180;-78
2022/12/31 11:37:44;;;;;;;;;9.33;9.00;;;;;17.60;100.00;100952.31;5085322;27;45279;-77
2022/12/31 11:40:27;;;;;;;;;5.00;3.33;;;;;17.62;100.00;100945.59;5095812;27;45447;-76
2022/12/31 11:43:15;;;;;;;;;3.00;3.00;;;;;17.65;100.00;100960.88;5087464;27;45645;-77
2022/12/31 11:45:49;;;;;;;;;3.33;3.00;;;;;17.70;100.00;100951.00;5086728;27;47080;-77
2022/12/31 11:48:49;;;;;;;;;5.00;3.00;;;;;17.85;100.00;100954.59;5086739;27;45308;-77
2022/12/31 11:51:23;;;;;;;;;4.00;4.00;;;;;17.85;100.00;100938.09;5105800;27;45298;-78
2022/12/31 11:54:07;;;;;;;;;6.33;4.67;;;;;17.78;100.00;100944.56;5105896;27;45236;-77